sensor_id;sensor_type;location;lat;lon;timestamp;pressure;altitude;pressure_sealevel;temperature;humidity
13968;BME280;39536;52.198;9.920;2022-07-30T00:00:09;100691.19;;;18.32;78.72
13968;BME280;39536;52.198;9.920;2022-07-30T00:02:37;100695.13;;;18.24;79.41
13968;BME280;39536;52.198;9.920;2022-07-30T00:05:06;100683.56;;;18.27;79.19
13968;BME280;39536;52.198;9.920;2022-07-30T00:07:32;100688.34;;;18.35;79.03
13968;BME280;39536;52.198;9.920;2022-07-30T00:09:59;100687.56;;;18.47;78.92
13968;BME280;39536;52.198;9.920;2022-07-30T00:12:26;100690.69;;;18.39;78.86
13968;BME280;39536;52.198;9.920;2022-07-30T00:14:53;100695.13;;;18.39;78.86
13968;BME280;39536;52.198;9.920;2022-07-30T00:17:19;100690.50;;;18.28;79.64
13968;BME280;39536;52.198;9.920;2022-07-30T00:19:47;100694.09;;;18.27;80.13
13968;BME280;39536;52.198;9.920;2022-07-30T00:22:13;100693.81;;;18.17;80.20
13968;BME280;39536;52.198;9.920;2022-07-30T00:24:40;100684.59;;;18.24;80.53
13968;BME280;39536;52.198;9.920;2022-07-30T00:27:06;100678.38;;;18.26;80.83
13968;BME280;39536;52.198;9.920;2022-07-30T00:29:33;100678.66;;;18.21;81.23
13968;BME280;39536;52.198;9.920;2022-07-30T00:31:59;100676.41;;;18.15;81.51
13968;BME280;39536;52.198;9.920;2022-07-30T00:34:26;100674.34;;;18.06;81.63
13968;BME280;39536;52.198;9.920;2022-07-30T00:36:53;100682.53;;;18.01;82.33
13968;BME280;39536;52.198;9.920;2022-07-30T00:39:20;100676.22;;;17.89;82.79
13968;BME280;39536;52.198;9.920;2022-07-30T00:41:54;100678.75;;;17.91;82.85
13968;BME280;39536;52.198;9.920;2022-07-30T00:44:21;100673.41;;;17.92;82.71
13968;BME280;39536;52.198;9.920;2022-07-30T00:46:47;100677.25;;;18.01;82.90
13968;BME280;39536;52.198;9.920;2022-07-30T00:49:14;100672.47;;;18.08;82.56
13968;BME280;39536;52.198;9.920;2022-07-30T00:51:40;100673.75;;;18.00;82.64
13968;BME280;39536;52.198;9.920;2022-07-30T00:54:08;100677.16;;;18.03;82.72
13968;BME280;39536;52.198;9.920;2022-07-30T00:56:35;100676.22;;;18.04;82.98
13968;BME280;39536;52.198;9.920;2022-07-30T00:59:01;100672.94;;;18.14;82.67
13968;BME280;39536;52.198;9.920;2022-07-30T01:01:30;100676.78;;;18.23;82.41
13968;BME280;39536;52.198;9.920;2022-07-30T01:03:56;100675.63;;;18.27;82.14
13968;BME280;39536;52.198;9.920;2022-07-30T01:06:23;100681.69;;;18.29;82.21
13968;BME280;39536;52.198;9.920;2022-07-30T01:08:49;100675.72;;;18.40;81.75
13968;BME280;39536;52.198;9.920;2022-07-30T01:11:17;100678.28;;;18.41;81.19
13968;BME280;39536;52.198;9.920;2022-07-30T01:13:44;100684.09;;;18.46;81.10
13968;BME280;39536;52.198;9.920;2022-07-30T01:16:11;100672.81;;;18.44;80.95
13968;BME280;39536;52.198;9.920;2022-07-30T01:18:38;100673.38;;;18.35;81.29
13968;BME280;39536;52.198;9.920;2022-07-30T01:21:31;100673.56;;;18.32;81.51
13968;BME280;39536;52.198;9.920;2022-07-30T01:24:10;100670.28;;;18.29;82.11
13968;BME280;39536;52.198;9.920;2022-07-30T01:26:38;100669.59;;;18.25;82.57
13968;BME280;39536;52.198;9.920;2022-07-30T01:29:06;100672.00;;;18.01;82.84
13968;BME280;39536;52.198;9.920;2022-07-30T01:31:34;100665.78;;;18.02;82.95
13968;BME280;39536;52.198;9.920;2022-07-30T01:34:02;100672.63;;;17.90;83.92
13968;BME280;39536;52.198;9.920;2022-07-30T01:36:30;100672.38;;;17.95;84.13
13968;BME280;39536;52.198;9.920;2022-07-30T01:38:59;100673.69;;;18.02;84.27
13968;BME280;39536;52.198;9.920;2022-07-30T01:41:27;100683.75;;;18.10;84.38
13968;BME280;39536;52.198;9.920;2022-07-30T01:43:55;100683.75;;;18.24;84.10
13968;BME280;39536;52.198;9.920;2022-07-30T01:46:23;100691.28;;;18.30;83.83
13968;BME280;39536;52.198;9.920;2022-07-30T01:48:50;100691.47;;;18.41;83.24
13968;BME280;39536;52.198;9.920;2022-07-30T01:51:18;100695.19;;;18.52;82.61
13968;BME280;39536;52.198;9.920;2022-07-30T01:53:46;100702.53;;;18.61;82.64
13968;BME280;39536;52.198;9.920;2022-07-30T01:56:16;100705.72;;;18.66;83.08
13968;BME280;39536;52.198;9.920;2022-07-30T01:58:45;100715.22;;;18.68;82.85
13968;BME280;39536;52.198;9.920;2022-07-30T02:01:15;100715.72;;;18.75;82.96
13968;BME280;39536;52.198;9.920;2022-07-30T02:03:43;100722.72;;;18.76;82.55
13968;BME280;39536;52.198;9.920;2022-07-30T02:06:13;100722.78;;;18.75;82.36
13968;BME280;39536;52.198;9.920;2022-07-30T02:08:46;100728.34;;;18.70;83.42
13968;BME280;39536;52.198;9.920;2022-07-30T02:11:15;100726.53;;;18.70;83.31
13968;BME280;39536;52.198;9.920;2022-07-30T02:14:06;100728.72;;;18.64;83.79
13968;BME280;39536;52.198;9.920;2022-07-30T02:16:37;100720.44;;;18.56;84.77
13968;BME280;39536;52.198;9.920;2022-07-30T02:19:09;100731.09;;;18.54;84.54
13968;BME280;39536;52.198;9.920;2022-07-30T02:21:39;100729.31;;;18.55;84.85
13968;BME280;39536;52.198;9.920;2022-07-30T02:24:09;100730.84;;;18.44;84.24
13968;BME280;39536;52.198;9.920;2022-07-30T02:26:37;100727.31;;;18.44;84.39
13968;BME280;39536;52.198;9.920;2022-07-30T02:29:06;100736.84;;;18.46;83.83
13968;BME280;39536;52.198;9.920;2022-07-30T02:31:35;100735.44;;;18.41;85.20
13968;BME280;39536;52.198;9.920;2022-07-30T02:34:04;100737.16;;;18.42;85.63
13968;BME280;39536;52.198;9.920;2022-07-30T02:36:32;100734.78;;;18.37;85.68
13968;BME280;39536;52.198;9.920;2022-07-30T02:39:02;100738.38;;;18.36;85.88
13968;BME280;39536;52.198;9.920;2022-07-30T02:41:30;100740.34;;;18.33;86.09
13968;BME280;39536;52.198;9.920;2022-07-30T02:43:57;100737.06;;;18.29;86.77
13968;BME280;39536;52.198;9.920;2022-07-30T02:46:25;100736.66;;;18.21;87.03
13968;BME280;39536;52.198;9.920;2022-07-30T02:48:53;100740.53;;;18.15;87.79
13968;BME280;39536;52.198;9.920;2022-07-30T02:51:23;100742.22;;;18.02;88.41
13968;BME280;39536;52.198;9.920;2022-07-30T02:53:51;100731.66;;;18.02;88.38
13968;BME280;39536;52.198;9.920;2022-07-30T02:56:20;100735.44;;;17.98;88.46
13968;BME280;39536;52.198;9.920;2022-07-30T02:58:48;100741.09;;;18.06;89.41
13968;BME280;39536;52.198;9.920;2022-07-30T03:01:16;100736.09;;;18.16;88.63
13968;BME280;39536;52.198;9.920;2022-07-30T03:03:45;100736.00;;;18.17;89.00
13968;BME280;39536;52.198;9.920;2022-07-30T03:06:14;100734.59;;;18.26;88.53
13968;BME280;39536;52.198;9.920;2022-07-30T03:08:40;100741.00;;;18.36;88.24
13968;BME280;39536;52.198;9.920;2022-07-30T03:11:09;100745.13;;;18.40;88.38
13968;BME280;39536;52.198;9.920;2022-07-30T03:13:36;100742.03;;;18.34;88.94
13968;BME280;39536;52.198;9.920;2022-07-30T03:16:06;100750.22;;;18.43;88.88
13968;BME280;39536;52.198;9.920;2022-07-30T03:18:35;100749.94;;;18.48;88.95
13968;BME280;39536;52.198;9.920;2022-07-30T03:21:05;100753.31;;;18.50;88.58
13968;BME280;39536;52.198;9.920;2022-07-30T03:23:35;100755.31;;;18.46;88.32
13968;BME280;39536;52.198;9.920;2022-07-30T03:26:04;100765.66;;;18.50;88.66
13968;BME280;39536;52.198;9.920;2022-07-30T03:28:35;100759.84;;;18.44;88.90
13968;BME280;39536;52.198;9.920;2022-07-30T03:31:03;100765.31;;;18.41;88.27
13968;BME280;39536;52.198;9.920;2022-07-30T03:33:30;100759.09;;;18.42;88.20
13968;BME280;39536;52.198;9.920;2022-07-30T03:35:57;100765.59;;;18.37;89.23
13968;BME280;39536;52.198;9.920;2022-07-30T03:38:25;100771.81;;;18.36;88.53
13968;BME280;39536;52.198;9.920;2022-07-30T03:40:54;100760.41;;;18.35;89.44
13968;BME280;39536;52.198;9.920;2022-07-30T03:43:21;100772.25;;;18.28;89.51
13968;BME280;39536;52.198;9.920;2022-07-30T03:45:49;100773.22;;;18.27;90.20
13968;BME280;39536;52.198;9.920;2022-07-30T03:48:17;100774.72;;;18.17;90.89
13968;BME280;39536;52.198;9.920;2022-07-30T03:50:44;100784.25;;;18.19;91.19
13968;BME280;39536;52.198;9.920;2022-07-30T03:53:12;100788.56;;;18.20;91.58
13968;BME280;39536;52.198;9.920;2022-07-30T03:55:39;100794.78;;;18.19;91.85
13968;BME280;39536;52.198;9.920;2022-07-30T03:58:07;100797.44;;;18.19;92.03
13968;BME280;39536;52.198;9.920;2022-07-30T04:00:37;100803.97;;;18.12;92.55
13968;BME280;39536;52.198;9.920;2022-07-30T04:03:04;100800.44;;;18.13;92.94
13968;BME280;39536;52.198;9.920;2022-07-30T04:05:30;100808.41;;;18.12;93.12
13968;BME280;39536;52.198;9.920;2022-07-30T04:07:57;100810.38;;;18.08;93.52
13968;BME280;39536;52.198;9.920;2022-07-30T04:10:23;100814.16;;;18.04;94.38
13968;BME280;39536;52.198;9.920;2022-07-30T04:12:50;100817.53;;;18.06;94.43
13968;BME280;39536;52.198;9.920;2022-07-30T04:15:17;100818.38;;;18.07;94.43
13968;BME280;39536;52.198;9.920;2022-07-30T04:17:47;100824.16;;;18.13;93.32
13968;BME280;39536;52.198;9.920;2022-07-30T04:20:17;100824.16;;;18.13;92.92
13968;BME280;39536;52.198;9.920;2022-07-30T04:22:46;100828.75;;;18.10;93.12
13968;BME280;39536;52.198;9.920;2022-07-30T04:25:14;100825.91;;;18.13;93.99
13968;BME280;39536;52.198;9.920;2022-07-30T04:27:41;100831.19;;;18.13;93.75
13968;BME280;39536;52.198;9.920;2022-07-30T04:30:09;100834.41;;;18.18;93.47
13968;BME280;39536;52.198;9.920;2022-07-30T04:32:37;100830.28;;;18.14;93.52
13968;BME280;39536;52.198;9.920;2022-07-30T04:35:04;100825.00;;;18.14;93.16
13968;BME280;39536;52.198;9.920;2022-07-30T04:37:30;100821.41;;;18.15;92.82
13968;BME280;39536;52.198;9.920;2022-07-30T04:39:57;100820.47;;;18.02;93.72
13968;BME280;39536;52.198;9.920;2022-07-30T04:42:24;100828.44;;;18.00;94.35
13968;BME280;39536;52.198;9.920;2022-07-30T04:44:51;100820.34;;;18.03;93.81
13968;BME280;39536;52.198;9.920;2022-07-30T04:47:18;100825.81;;;18.00;93.86
13968;BME280;39536;52.198;9.920;2022-07-30T04:49:47;100825.50;;;17.90;94.31
13968;BME280;39536;52.198;9.920;2022-07-30T04:52:15;100828.59;;;17.83;94.64
13968;BME280;39536;52.198;9.920;2022-07-30T04:54:43;100821.63;;;17.66;95.25
13968;BME280;39536;52.198;9.920;2022-07-30T04:57:12;100817.81;;;17.55;96.45
13968;BME280;39536;52.198;9.920;2022-07-30T04:59:39;100826.41;;;17.59;96.71
13968;BME280;39536;52.198;9.920;2022-07-30T05:02:06;100825.13;;;17.50;97.22
13968;BME280;39536;52.198;9.920;2022-07-30T05:04:34;100824.47;;;17.31;98.55
13968;BME280;39536;52.198;9.920;2022-07-30T05:07:04;100816.16;;;17.39;98.67
13968;BME280;39536;52.198;9.920;2022-07-30T05:09:32;100810.91;;;17.23;98.85
13968;BME280;39536;52.198;9.920;2022-07-30T05:11:59;100811.25;;;17.17;99.53
13968;BME280;39536;52.198;9.920;2022-07-30T05:14:26;100801.22;;;16.92;100.00
13968;BME280;39536;52.198;9.920;2022-07-30T05:16:53;100797.66;;;16.93;100.00
13968;BME280;39536;52.198;9.920;2022-07-30T05:19:20;100802.75;;;16.80;100.00
13968;BME280;39536;52.198;9.920;2022-07-30T05:21:47;100800.09;;;16.80;100.00
13968;BME280;39536;52.198;9.920;2022-07-30T05:24:15;100801.91;;;16.79;100.00
13968;BME280;39536;52.198;9.920;2022-07-30T05:26:41;100809.22;;;16.73;100.00
13968;BME280;39536;52.198;9.920;2022-07-30T05:29:08;100815.00;;;16.63;100.00
13968;BME280;39536;52.198;9.920;2022-07-30T05:31:35;100808.63;;;16.68;100.00
13968;BME280;39536;52.198;9.920;2022-07-30T05:34:02;100800.13;;;16.62;100.00
13968;BME280;39536;52.198;9.920;2022-07-30T05:36:29;100801.59;;;16.68;100.00
13968;BME280;39536;52.198;9.920;2022-07-30T05:38:55;100804.81;;;16.73;100.00
13968;BME280;39536;52.198;9.920;2022-07-30T05:41:23;100799.63;;;16.72;100.00
13968;BME280;39536;52.198;9.920;2022-07-30T05:43:52;100806.31;;;16.61;100.00
13968;BME280;39536;52.198;9.920;2022-07-30T05:46:19;100797.59;;;16.61;100.00
13968;BME280;39536;52.198;9.920;2022-07-30T05:48:45;100803.44;;;16.66;100.00
13968;BME280;39536;52.198;9.920;2022-07-30T05:51:11;100808.38;;;16.72;100.00
13968;BME280;39536;52.198;9.920;2022-07-30T05:53:38;100806.59;;;16.73;100.00
13968;BME280;39536;52.198;9.920;2022-07-30T05:56:04;100802.34;;;16.70;100.00
13968;BME280;39536;52.198;9.920;2022-07-30T05:58:35;100813.16;;;16.81;100.00
13968;BME280;39536;52.198;9.920;2022-07-30T06:01:02;100815.97;;;16.78;100.00
13968;BME280;39536;52.198;9.920;2022-07-30T06:03:29;100813.28;;;16.96;100.00
13968;BME280;39536;52.198;9.920;2022-07-30T06:05:55;100823.72;;;17.13;100.00
13968;BME280;39536;52.198;9.920;2022-07-30T06:08:22;100819.88;;;17.19;100.00
13968;BME280;39536;52.198;9.920;2022-07-30T06:10:48;100819.31;;;17.14;100.00
13968;BME280;39536;52.198;9.920;2022-07-30T06:13:15;100819.81;;;17.20;100.00
13968;BME280;39536;52.198;9.920;2022-07-30T06:15:43;100816.84;;;17.26;100.00
13968;BME280;39536;52.198;9.920;2022-07-30T06:18:09;100817.06;;;17.38;100.00
13968;BME280;39536;52.198;9.920;2022-07-30T06:20:36;100816.06;;;17.40;100.00
13968;BME280;39536;52.198;9.920;2022-07-30T06:23:02;100817.31;;;17.49;100.00
13968;BME280;39536;52.198;9.920;2022-07-30T06:25:29;100825.81;;;17.54;100.00
13968;BME280;39536;52.198;9.920;2022-07-30T06:27:55;100827.34;;;17.58;99.74
13968;BME280;39536;52.198;9.920;2022-07-30T06:30:21;100828.97;;;17.61;99.46
13968;BME280;39536;52.198;9.920;2022-07-30T06:32:49;100830.41;;;17.66;99.40
13968;BME280;39536;52.198;9.920;2022-07-30T06:35:16;100822.81;;;17.76;99.32
13968;BME280;39536;52.198;9.920;2022-07-30T06:37:42;100827.81;;;17.81;97.79
13968;BME280;39536;52.198;9.920;2022-07-30T06:40:09;100823.88;;;17.88;97.68
13968;BME280;39536;52.198;9.920;2022-07-30T06:42:36;100816.09;;;17.86;97.40
13968;BME280;39536;52.198;9.920;2022-07-30T06:45:03;100816.22;;;17.99;97.99
13968;BME280;39536;52.198;9.920;2022-07-30T06:47:30;100822.63;;;18.09;97.60
13968;BME280;39536;52.198;9.920;2022-07-30T06:50:00;100822.66;;;18.23;96.95
13968;BME280;39536;52.198;9.920;2022-07-30T06:52:28;100826.63;;;18.31;96.16
13968;BME280;39536;52.198;9.920;2022-07-30T06:54:54;100827.19;;;18.50;95.67
13968;BME280;39536;52.198;9.920;2022-07-30T06:57:20;100827.78;;;18.69;94.79
13968;BME280;39536;52.198;9.920;2022-07-30T06:59:47;100827.44;;;18.76;93.04
13968;BME280;39536;52.198;9.920;2022-07-30T07:02:14;100832.88;;;18.87;91.62
13968;BME280;39536;52.198;9.920;2022-07-30T07:04:40;100837.13;;;18.89;91.89
13968;BME280;39536;52.198;9.920;2022-07-30T07:07:08;100830.88;;;19.05;90.99
13968;BME280;39536;52.198;9.920;2022-07-30T07:09:34;100837.19;;;19.17;91.15
13968;BME280;39536;52.198;9.920;2022-07-30T07:12:01;100839.69;;;19.32;89.89
13968;BME280;39536;52.198;9.920;2022-07-30T07:17:50;100833.88;;;19.81;90.21
13968;BME280;39536;52.198;9.920;2022-07-30T07:20:16;100833.00;;;19.81;86.34
13968;BME280;39536;52.198;9.920;2022-07-30T07:22:44;100826.75;;;19.69;85.92
13968;BME280;39536;52.198;9.920;2022-07-30T07:25:11;100826.81;;;19.95;86.64
13968;BME280;39536;52.198;9.920;2022-07-30T07:27:38;100819.31;;;20.27;86.25
13968;BME280;39536;52.198;9.920;2022-07-30T07:30:05;100819.53;;;20.49;83.77
13968;BME280;39536;52.198;9.920;2022-07-30T07:32:32;100828.09;;;20.40;82.88
13968;BME280;39536;52.198;9.920;2022-07-30T07:34:59;100813.75;;;20.57;82.83
13968;BME280;39536;52.198;9.920;2022-07-30T07:37:26;100820.63;;;20.60;83.60
13968;BME280;39536;52.198;9.920;2022-07-30T07:39:54;100813.69;;;20.83;82.87
13968;BME280;39536;52.198;9.920;2022-07-30T07:42:20;100811.66;;;20.86;80.29
13968;BME280;39536;52.198;9.920;2022-07-30T07:44:47;100808.66;;;21.04;82.31
13968;BME280;39536;52.198;9.920;2022-07-30T07:47:14;100804.47;;;20.88;80.76
13968;BME280;39536;52.198;9.920;2022-07-30T07:49:40;100810.72;;;20.87;79.24
13968;BME280;39536;52.198;9.920;2022-07-30T07:52:07;100801.44;;;20.69;79.83
13968;BME280;39536;52.198;9.920;2022-07-30T07:54:34;100797.53;;;20.62;79.59
13968;BME280;39536;52.198;9.920;2022-07-30T07:57:02;100792.34;;;20.47;77.99
13968;BME280;39536;52.198;9.920;2022-07-30T07:59:32;100784.06;;;20.39;80.42
13968;BME280;39536;52.198;9.920;2022-07-30T08:01:58;100788.72;;;20.48;79.61
13968;BME280;39536;52.198;9.920;2022-07-30T08:04:25;100787.78;;;20.37;78.89
13968;BME280;39536;52.198;9.920;2022-07-30T08:06:52;100791.59;;;20.45;79.97
13968;BME280;39536;52.198;9.920;2022-07-30T08:09:18;100784.00;;;20.53;79.51
13968;BME280;39536;52.198;9.920;2022-07-30T08:11:45;100789.91;;;20.57;80.41
13968;BME280;39536;52.198;9.920;2022-07-30T08:14:13;100792.63;;;20.68;80.53
13968;BME280;39536;52.198;9.920;2022-07-30T08:16:40;100786.91;;;20.87;76.42
13968;BME280;39536;52.198;9.920;2022-07-30T08:19:07;100796.41;;;20.90;77.43
13968;BME280;39536;52.198;9.920;2022-07-30T08:21:33;100786.91;;;20.87;77.40
13968;BME280;39536;52.198;9.920;2022-07-30T08:24:00;100791.50;;;20.96;76.35
13968;BME280;39536;52.198;9.920;2022-07-30T08:26:27;100792.78;;;21.04;76.51
13968;BME280;39536;52.198;9.920;2022-07-30T08:28:53;100799.25;;;21.23;75.72
13968;BME280;39536;52.198;9.920;2022-07-30T08:31:21;100801.47;;;20.93;74.13
13968;BME280;39536;52.198;9.920;2022-07-30T08:33:48;100805.28;;;21.02;76.18
13968;BME280;39536;52.198;9.920;2022-07-30T08:36:14;100808.38;;;20.95;76.92
13968;BME280;39536;52.198;9.920;2022-07-30T08:38:41;100804.97;;;21.06;76.15
13968;BME280;39536;52.198;9.920;2022-07-30T08:41:08;100814.53;;;20.83;76.44
13968;BME280;39536;52.198;9.920;2022-07-30T08:43:36;100808.09;;;20.87;75.78
13968;BME280;39536;52.198;9.920;2022-07-30T08:46:04;100813.03;;;20.92;76.28
13968;BME280;39536;52.198;9.920;2022-07-30T08:48:36;100812.09;;;20.80;77.49
13968;BME280;39536;52.198;9.920;2022-07-30T08:51:02;100806.09;;;20.78;77.68
13968;BME280;39536;52.198;9.920;2022-07-30T08:53:30;100812.69;;;20.96;78.00
13968;BME280;39536;52.198;9.920;2022-07-30T08:55:58;100814.84;;;20.91;77.07
13968;BME280;39536;52.198;9.920;2022-07-30T08:58:27;100814.41;;;20.97;76.83
13968;BME280;39536;52.198;9.920;2022-07-30T09:00:54;100810.13;;;21.08;77.42
13968;BME280;39536;52.198;9.920;2022-07-30T09:03:21;100811.56;;;21.25;76.90
13968;BME280;39536;52.198;9.920;2022-07-30T09:05:49;100818.25;;;21.17;75.00
13968;BME280;39536;52.198;9.920;2022-07-30T09:08:16;100817.53;;;21.15;74.38
13968;BME280;39536;52.198;9.920;2022-07-30T09:10:43;100810.66;;;21.13;73.48
13968;BME280;39536;52.198;9.920;2022-07-30T09:13:23;100815.00;;;21.14;75.53
13968;BME280;39536;52.198;9.920;2022-07-30T09:15:50;100815.34;;;20.96;76.19
13968;BME280;39536;52.198;9.920;2022-07-30T09:18:26;100816.13;;;21.22;75.56
13968;BME280;39536;52.198;9.920;2022-07-30T09:20:54;100810.91;;;21.21;74.29
13968;BME280;39536;52.198;9.920;2022-07-30T09:23:21;100819.63;;;21.23;74.49
13968;BME280;39536;52.198;9.920;2022-07-30T09:25:48;100816.88;;;21.12;74.59
13968;BME280;39536;52.198;9.920;2022-07-30T09:28:15;100813.66;;;21.32;73.71
13968;BME280;39536;52.198;9.920;2022-07-30T09:30:44;100811.03;;;21.56;73.74
13968;BME280;39536;52.198;9.920;2022-07-30T09:33:11;100815.81;;;21.86;72.83
13968;BME280;39536;52.198;9.920;2022-07-30T09:35:38;100817.06;;;21.94;69.97
13968;BME280;39536;52.198;9.920;2022-07-30T09:38:07;100820.19;;;21.87;70.25
13968;BME280;39536;52.198;9.920;2022-07-30T09:40:34;100819.72;;;21.94;70.54
13968;BME280;39536;52.198;9.920;2022-07-30T09:43:02;100824.09;;;22.06;70.79
13968;BME280;39536;52.198;9.920;2022-07-30T09:45:29;100832.75;;;22.08;69.88
13968;BME280;39536;52.198;9.920;2022-07-30T09:47:56;100826.13;;;22.02;69.39
13968;BME280;39536;52.198;9.920;2022-07-30T09:50:23;100823.81;;;22.22;69.89
13968;BME280;39536;52.198;9.920;2022-07-30T09:52:52;100824.91;;;22.42;68.24
13968;BME280;39536;52.198;9.920;2022-07-30T09:55:30;100834.91;;;22.38;67.14
13968;BME280;39536;52.198;9.920;2022-07-30T09:57:58;100833.25;;;22.37;67.52
13968;BME280;39536;52.198;9.920;2022-07-30T10:00:27;100827.19;;;22.35;67.23
13968;BME280;39536;52.198;9.920;2022-07-30T10:02:54;100841.63;;;22.20;65.06
13968;BME280;39536;52.198;9.920;2022-07-30T10:05:22;100836.72;;;22.38;65.56
13968;BME280;39536;52.198;9.920;2022-07-30T10:07:50;100834.81;;;22.62;65.69
13968;BME280;39536;52.198;9.920;2022-07-30T10:10:18;100829.97;;;22.67;64.49
13968;BME280;39536;52.198;9.920;2022-07-30T10:12:50;100828.06;;;22.80;63.77
13968;BME280;39536;52.198;9.920;2022-07-30T10:15:19;100834.56;;;22.76;64.92
13968;BME280;39536;52.198;9.920;2022-07-30T10:17:47;100819.72;;;22.85;62.05
13968;BME280;39536;52.198;9.920;2022-07-30T10:20:14;100836.97;;;22.91;61.92
13968;BME280;39536;52.198;9.920;2022-07-30T10:22:42;100828.28;;;22.89;60.85
13968;BME280;39536;52.198;9.920;2022-07-30T10:25:09;100829.16;;;23.00;61.26
13968;BME280;39536;52.198;9.920;2022-07-30T10:27:36;100836.13;;;23.13;62.22
13968;BME280;39536;52.198;9.920;2022-07-30T10:30:06;100826.22;;;23.15;61.18
13968;BME280;39536;52.198;9.920;2022-07-30T10:32:33;100828.31;;;23.43;61.57
13968;BME280;39536;52.198;9.920;2022-07-30T10:35:04;100831.66;;;23.57;59.93
13968;BME280;39536;52.198;9.920;2022-07-30T10:37:31;100822.59;;;23.59;59.40
13968;BME280;39536;52.198;9.920;2022-07-30T10:40:05;100823.53;;;23.58;58.93
13968;BME280;39536;52.198;9.920;2022-07-30T10:42:54;100838.53;;;23.59;59.14
13968;BME280;39536;52.198;9.920;2022-07-30T10:45:34;100824.84;;;23.75;58.99
13968;BME280;39536;52.198;9.920;2022-07-30T10:48:07;100825.25;;;23.91;60.12
13968;BME280;39536;52.198;9.920;2022-07-30T10:50:48;100827.06;;;23.91;58.76
13968;BME280;39536;52.198;9.920;2022-07-30T10:53:31;100832.94;;;23.73;58.85
13968;BME280;39536;52.198;9.920;2022-07-30T10:56:10;100837.16;;;23.44;60.32
13968;BME280;39536;52.198;9.920;2022-07-30T10:59:02;100838.13;;;23.43;60.52
13968;BME280;39536;52.198;9.920;2022-07-30T11:02:08;100837.38;;;23.52;60.08
13968;BME280;39536;52.198;9.920;2022-07-30T11:04:35;100833.06;;;23.40;60.47
13968;BME280;39536;52.198;9.920;2022-07-30T11:07:26;100828.75;;;23.92;61.10
13968;BME280;39536;52.198;9.920;2022-07-30T11:09:55;100822.06;;;24.18;57.91
13968;BME280;39536;52.198;9.920;2022-07-30T11:15:50;100827.38;;;24.70;57.33
13968;BME280;39536;52.198;9.920;2022-07-30T11:18:20;100827.22;;;24.62;54.98
13968;BME280;39536;52.198;9.920;2022-07-30T11:21:14;100830.38;;;24.46;55.98
13968;BME280;39536;52.198;9.920;2022-07-30T11:23:42;100831.38;;;24.85;55.86
13968;BME280;39536;52.198;9.920;2022-07-30T11:26:10;100827.41;;;25.20;54.49
13968;BME280;39536;52.198;9.920;2022-07-30T11:28:40;100833.34;;;25.33;52.24
13968;BME280;39536;52.198;9.920;2022-07-30T11:31:28;100824.69;;;25.90;52.29
13968;BME280;39536;52.198;9.920;2022-07-30T11:34:27;100824.28;;;26.41;51.67
13968;BME280;39536;52.198;9.920;2022-07-30T11:37:05;100825.22;;;26.87;50.98
13968;BME280;39536;52.198;9.920;2022-07-30T11:40:05;100827.47;;;25.98;50.53
13968;BME280;39536;52.198;9.920;2022-07-30T11:42:33;100816.16;;;26.33;52.84
13968;BME280;39536;52.198;9.920;2022-07-30T11:45:23;100824.09;;;26.62;50.01
13968;BME280;39536;52.198;9.920;2022-07-30T11:47:56;100824.44;;;26.49;50.43
13968;BME280;39536;52.198;9.920;2022-07-30T11:50:28;100826.63;;;25.97;52.02
13968;BME280;39536;52.198;9.920;2022-07-30T11:52:56;100825.06;;;25.37;54.18
13968;BME280;39536;52.198;9.920;2022-07-30T11:55:26;100822.97;;;24.90;54.85
13968;BME280;39536;52.198;9.920;2022-07-30T11:57:53;100828.25;;;24.71;56.07
13968;BME280;39536;52.198;9.920;2022-07-30T12:00:20;100829.88;;;25.02;55.03
13968;BME280;39536;52.198;9.920;2022-07-30T12:02:47;100830.22;;;25.19;54.35
13968;BME280;39536;52.198;9.920;2022-07-30T12:05:14;100833.50;;;25.01;54.10
13968;BME280;39536;52.198;9.920;2022-07-30T12:07:42;100828.59;;;24.87;53.87
13968;BME280;39536;52.198;9.920;2022-07-30T12:10:17;100818.47;;;24.81;54.35
13968;BME280;39536;52.198;9.920;2022-07-30T12:12:44;100821.78;;;25.14;52.19
13968;BME280;39536;52.198;9.920;2022-07-30T12:15:27;100825.75;;;25.39;50.79
13968;BME280;39536;52.198;9.920;2022-07-30T12:17:55;100819.31;;;25.80;49.66
13968;BME280;39536;52.198;9.920;2022-07-30T12:20:22;100821.56;;;25.75;49.12
13968;BME280;39536;52.198;9.920;2022-07-30T12:22:50;100822.69;;;25.43;49.46
13968;BME280;39536;52.198;9.920;2022-07-30T12:25:17;100816.50;;;25.62;50.65
13968;BME280;39536;52.198;9.920;2022-07-30T12:27:45;100814.13;;;26.08;50.71
13968;BME280;39536;52.198;9.920;2022-07-30T12:30:14;100814.16;;;26.45;51.69
13968;BME280;39536;52.198;9.920;2022-07-30T12:32:41;100817.38;;;26.58;48.47
13968;BME280;39536;52.198;9.920;2022-07-30T12:35:08;100814.53;;;26.03;48.53
13968;BME280;39536;52.198;9.920;2022-07-30T12:37:35;100811.88;;;25.93;50.32
13968;BME280;39536;52.198;9.920;2022-07-30T12:40:09;100807.66;;;25.91;50.35
13968;BME280;39536;52.198;9.920;2022-07-30T12:42:47;100809.34;;;26.11;49.63
13968;BME280;39536;52.198;9.920;2022-07-30T12:45:25;100799.00;;;26.36;47.54
13968;BME280;39536;52.198;9.920;2022-07-30T12:47:51;100799.41;;;26.78;46.15
13968;BME280;39536;52.198;9.920;2022-07-30T12:50:18;100806.72;;;26.48;46.55
13968;BME280;39536;52.198;9.920;2022-07-30T12:52:47;100801.59;;;26.08;47.46
13968;BME280;39536;52.198;9.920;2022-07-30T12:55:17;100792.03;;;26.15;48.25
13968;BME280;39536;52.198;9.920;2022-07-30T12:57:54;100791.56;;;26.20;47.58
13968;BME280;39536;52.198;9.920;2022-07-30T13:00:22;100800.97;;;26.34;46.62
13968;BME280;39536;52.198;9.920;2022-07-30T13:02:49;100794.25;;;26.30;47.44
13968;BME280;39536;52.198;9.920;2022-07-30T13:05:16;100788.38;;;26.07;50.50